createdAt,value
2022-12-18T00:00:59.826Z,41.67
2022-12-18T00:03:27.306Z,34.10
2022-12-18T00:05:54.056Z,45.50
2022-12-18T00:08:20.711Z,25.30
2022-12-18T00:10:47.346Z,35.13
2022-12-18T00:13:13.974Z,36.75
2022-12-18T00:15:40.930Z,37.35
2022-12-18T00:18:07.627Z,41.17
2022-12-18T00:20:39.202Z,46.43
2022-12-18T00:23:06.726Z,33.85
2022-12-18T00:25:37.110Z,33.35
2022-12-18T00:28:04.684Z,38.58
2022-12-18T00:30:31.392Z,46.15
2022-12-18T00:32:58.707Z,37.47
2022-12-18T00:35:25.351Z,26.13
2022-12-18T00:37:52.010Z,43.88
2022-12-18T00:40:18.649Z,27.13
2022-12-18T00:42:57.120Z,21.98
2022-12-18T00:45:30.642Z,39.80
2022-12-18T00:47:58.209Z,43.50
2022-12-18T00:50:26.701Z,35.80
2022-12-18T00:52:53.559Z,37.03
2022-12-18T00:55:20.159Z,39.08
2022-12-18T00:57:46.786Z,17.90
2022-12-18T01:00:15.476Z,32.03
2022-12-18T01:02:42.649Z,48.67
2022-12-18T01:05:10.899Z,36.15
2022-12-18T01:07:37.716Z,26.67
2022-12-18T01:10:06.508Z,21.33
2022-12-18T01:12:34.147Z,44.38
2022-12-18T01:15:00.810Z,25.67
2022-12-18T01:17:27.559Z,19.73
2022-12-18T01:19:54.270Z,42.88
2022-12-18T01:22:20.902Z,59.50
2022-12-18T01:24:47.602Z,32.25
2022-12-18T01:27:14.510Z,56.53
2022-12-18T01:29:41.295Z,44.40
2022-12-18T01:32:09.740Z,48.63
2022-12-18T01:34:37.514Z,41.23
2022-12-18T01:37:05.696Z,53.08
2022-12-18T01:39:33.249Z,59.33
2022-12-18T01:42:04.585Z,52.92
2022-12-18T01:45:17.901Z,45.65
2022-12-18T01:47:49.781Z,44.60
2022-12-18T01:50:22.166Z,43.60
2022-12-18T01:52:52.790Z,42.25
2022-12-18T01:55:23.092Z,40.47
2022-12-18T01:57:53.459Z,24.52
2022-12-18T02:00:22.536Z,35.23
2022-12-18T02:02:49.629Z,33.58
2022-12-18T02:05:23.611Z,17.95
2022-12-18T02:08:05.376Z,30.70
2022-12-18T02:10:36.744Z,41.95
2022-12-18T02:13:23.500Z,35.87
2022-12-18T02:16:00.239Z,44.08
2022-12-18T02:18:34.646Z,39.13
2022-12-18T02:21:13.431Z,57.72
2022-12-18T02:24:06.614Z,28.58
2022-12-18T02:26:47.640Z,45.37
2022-12-18T02:29:19.388Z,42.30
2022-12-18T02:31:53.808Z,33.97
2022-12-18T02:34:24.275Z,33.40
2022-12-18T02:36:52.082Z,30.65
2022-12-18T02:39:22.076Z,40.40
2022-12-18T02:41:49.980Z,26.45
2022-12-18T02:44:16.747Z,26.52
2022-12-18T02:46:54.357Z,43.53
2022-12-18T02:49:40.703Z,24.23
2022-12-18T02:52:19.510Z,33.43
2022-12-18T02:55:00.883Z,38.10
2022-12-18T02:57:36.746Z,30.58
2022-12-18T03:00:19.494Z,37.53
2022-12-18T03:02:59.886Z,40.88
2022-12-18T03:05:39.587Z,34.23
2022-12-18T03:08:15.263Z,30.75
2022-12-18T03:11:05.163Z,42.53
2022-12-18T03:13:37.147Z,35.30
2022-12-18T03:16:08.622Z,42.10
2022-12-18T03:18:47.445Z,55.03
2022-12-18T03:21:17.585Z,42.13
2022-12-18T03:23:49.054Z,41.80
2022-12-18T03:26:20.477Z,36.65
2022-12-18T03:28:52.220Z,37.95
2022-12-18T03:31:22.836Z,39.23
2022-12-18T03:34:01.943Z,39.85
2022-12-18T03:36:28.891Z,39.05
2022-12-18T03:38:55.530Z,39.13
2022-12-18T03:41:40.875Z,43.97
2022-12-18T03:44:32.365Z,39.03
2022-12-18T03:47:08.992Z,41.25
2022-12-18T03:49:38.657Z,40.97
2022-12-18T03:52:18.518Z,36.20
2022-12-18T03:54:46.547Z,45.08
2022-12-18T03:57:19.352Z,37.00
2022-12-18T03:59:50.273Z,35.78
2022-12-18T04:02:18.310Z,33.72
2022-12-18T04:04:48.717Z,35.95
2022-12-18T04:07:16.766Z,38.03
2022-12-18T04:09:46.553Z,39.17
2022-12-18T04:12:13.231Z,38.78
2022-12-18T04:14:40.790Z,30.77
2022-12-18T04:17:07.629Z,42.10
2022-12-18T04:19:34.301Z,35.30
2022-12-18T04:22:00.917Z,42.97
2022-12-18T04:24:27.900Z,35.17
2022-12-18T04:26:54.952Z,36.67
2022-12-18T04:29:21.550Z,42.00
2022-12-18T04:31:48.139Z,32.15
2022-12-18T04:34:14.928Z,31.70
2022-12-18T04:36:41.714Z,39.88
2022-12-18T04:39:08.322Z,43.20
2022-12-18T04:41:34.908Z,34.65
2022-12-18T04:44:01.596Z,35.15
2022-12-18T04:46:28.276Z,37.53
2022-12-18T04:48:55.055Z,34.53
2022-12-18T04:51:26.294Z,36.33
2022-12-18T04:53:53.926Z,25.58
2022-12-18T04:56:21.492Z,31.75
2022-12-18T04:58:48.207Z,37.53
2022-12-18T05:01:17.440Z,34.03
2022-12-18T05:03:44.586Z,36.72
2022-12-18T05:06:11.941Z,34.67
2022-12-18T05:08:38.610Z,34.85
2022-12-18T05:11:16.684Z,34.20
2022-12-18T05:13:45.362Z,33.33
2022-12-18T05:16:13.216Z,29.45
2022-12-18T05:18:39.898Z,37.40
2022-12-18T05:21:06.688Z,28.50
2022-12-18T05:23:33.323Z,23.77
2022-12-18T05:26:02.254Z,31.17
2022-12-18T05:28:30.919Z,32.83
2022-12-18T05:31:00.113Z,27.15
2022-12-18T05:33:29.422Z,21.77
2022-12-18T05:35:58.512Z,24.97
2022-12-18T05:38:27.686Z,33.17
2022-12-18T05:40:55.105Z,24.30
2022-12-18T05:43:22.917Z,24.77
2022-12-18T05:45:50.595Z,35.35
2022-12-18T05:48:17.984Z,25.63
2022-12-18T05:50:46.923Z,21.75
2022-12-18T05:53:15.404Z,33.95
2022-12-18T05:55:43.318Z,20.52
2022-12-18T05:58:11.337Z,14.48
2022-12-18T06:00:42.630Z,32.50
2022-12-18T06:03:10.603Z,31.08
2022-12-18T06:05:42.387Z,14.32
2022-12-18T06:08:09.260Z,33.83
2022-12-18T06:10:36.005Z,31.02
2022-12-18T06:13:02.862Z,24.20
2022-12-18T06:15:29.476Z,35.42
2022-12-18T06:17:56.088Z,35.17
2022-12-18T06:20:23.200Z,38.47
2022-12-18T06:22:50.420Z,31.80
2022-12-18T06:25:17.115Z,24.30
2022-12-18T06:27:44.207Z,32.25
2022-12-18T06:30:12.062Z,32.30
2022-12-18T06:32:39.354Z,23.58
2022-12-18T06:35:06.504Z,33.85
2022-12-18T06:37:33.129Z,37.13
2022-12-18T06:40:00.105Z,20.23
2022-12-18T06:42:26.748Z,24.55
2022-12-18T06:44:53.366Z,37.88
2022-12-18T06:47:20.050Z,41.30
2022-12-18T06:49:46.746Z,39.80
2022-12-18T06:52:13.330Z,36.28
2022-12-18T06:54:40.124Z,30.42
2022-12-18T06:57:06.748Z,41.78
2022-12-18T06:59:33.446Z,39.08
2022-12-18T07:02:00.179Z,37.10
2022-12-18T07:04:31.623Z,46.45
2022-12-18T07:06:58.480Z,39.63
2022-12-18T07:09:25.535Z,46.33
2022-12-18T07:11:52.873Z,30.42
2022-12-18T07:14:19.608Z,21.27
2022-12-18T07:16:46.372Z,34.42
2022-12-18T07:19:13.009Z,34.97
2022-12-18T07:21:39.790Z,39.28
2022-12-18T07:24:06.978Z,45.85
2022-12-18T07:26:33.841Z,42.57
2022-12-18T07:29:00.631Z,27.00
2022-12-18T07:31:27.948Z,39.10
2022-12-18T07:33:56.157Z,30.05
2022-12-18T07:36:22.816Z,29.15
2022-12-18T07:38:50.859Z,55.30
2022-12-18T07:41:17.885Z,44.50
2022-12-18T07:43:44.898Z,47.33
2022-12-18T07:46:14.649Z,40.15
2022-12-18T07:48:49.779Z,55.95
2022-12-18T07:51:17.898Z,50.07
2022-12-18T07:53:45.239Z,17.63
2022-12-18T07:56:30.485Z,36.92
2022-12-18T07:58:59.213Z,46.45
2022-12-18T08:01:26.433Z,38.55
2022-12-18T08:03:53.228Z,49.63
2022-12-18T08:06:22.478Z,49.13
2022-12-18T08:08:55.309Z,53.75
2022-12-18T08:11:23.230Z,53.80
2022-12-18T08:13:49.951Z,33.30
2022-12-18T08:16:16.768Z,43.60
2022-12-18T08:18:43.422Z,47.20
2022-12-18T08:21:30.676Z,50.63
2022-12-18T08:23:59.620Z,47.35
2022-12-18T08:26:28.274Z,25.52
2022-12-18T08:28:56.581Z,36.77
2022-12-18T08:31:23.919Z,43.25
2022-12-18T08:33:53.247Z,46.55
2022-12-18T08:36:21.137Z,47.35
2022-12-18T08:38:48.111Z,51.75
2022-12-18T08:41:16.387Z,33.83
2022-12-18T08:44:01.742Z,51.97
2022-12-18T08:46:35.125Z,55.25
2022-12-18T08:49:01.941Z,51.28
2022-12-18T08:51:29.559Z,45.92
2022-12-18T08:53:56.277Z,43.57
2022-12-18T08:56:22.958Z,53.80
2022-12-18T08:58:53.197Z,49.97
2022-12-18T09:01:20.391Z,29.38
2022-12-18T09:03:47.204Z,48.33
2022-12-18T09:06:18.936Z,40.83
2022-12-18T09:08:45.699Z,54.70
2022-12-18T09:11:39.179Z,46.38
2022-12-18T09:14:05.905Z,52.72
2022-12-18T09:16:35.827Z,47.10
2022-12-18T09:19:05.314Z,48.03
2022-12-18T09:21:36.952Z,51.40
2022-12-18T09:24:04.033Z,46.88
2022-12-18T09:26:31.802Z,28.50
2022-12-18T09:28:58.552Z,49.78
2022-12-18T09:31:25.763Z,51.53
2022-12-18T09:33:52.552Z,45.80
2022-12-18T09:36:19.882Z,50.35
2022-12-18T09:38:46.588Z,45.40
2022-12-18T09:41:16.496Z,48.70
2022-12-18T09:43:57.222Z,45.03
2022-12-18T09:46:37.617Z,54.90
2022-12-18T09:49:10.933Z,52.88
2022-12-18T09:51:43.175Z,60.05
2022-12-18T09:54:22.144Z,52.78
2022-12-18T09:56:49.122Z,48.77
2022-12-18T09:59:35.119Z,50.47
2022-12-18T10:02:17.805Z,41.85
2022-12-18T10:04:48.883Z,46.60
2022-12-18T10:07:15.484Z,46.92
2022-12-18T10:09:59.248Z,41.23
2022-12-18T10:12:39.417Z,50.10
2022-12-18T10:15:34.921Z,49.88
2022-12-18T10:18:32.199Z,49.70
2022-12-18T10:21:12.785Z,47.75
2022-12-18T10:23:48.624Z,49.90
2022-12-18T10:26:15.850Z,42.78
2022-12-18T10:28:43.659Z,49.35
2022-12-18T10:31:25.190Z,48.85
2022-12-18T10:33:54.683Z,43.20
2022-12-18T10:36:22.300Z,52.17
2022-12-18T10:38:50.804Z,39.40
2022-12-18T10:41:21.994Z,48.05
2022-12-18T10:43:49.156Z,51.80
2022-12-18T10:46:20.804Z,51.47
2022-12-18T10:48:47.470Z,65.83
2022-12-18T10:51:21.620Z,44.53
2022-12-18T10:53:55.206Z,57.20
2022-12-18T10:56:22.486Z,51.75
2022-12-18T10:59:12.865Z,52.13
2022-12-18T11:01:56.305Z,56.97
2022-12-18T11:04:28.128Z,60.13
2022-12-18T11:06:59.518Z,71.40
2022-12-18T11:09:33.438Z,53.53
2022-12-18T11:12:07.180Z,53.00
2022-12-18T11:14:36.541Z,44.87
2022-12-18T11:17:24.849Z,49.83
2022-12-18T11:19:59.010Z,48.83
2022-12-18T11:22:29.619Z,53.25
2022-12-18T11:25:30.865Z,52.22
2022-12-18T11:27:55.278Z,49.40
2022-12-18T11:30:21.911Z,56.80
2022-12-18T11:32:53.238Z,50.10
2022-12-18T11:35:59.323Z,49.25
2022-12-18T11:38:26.336Z,51.85
2022-12-18T11:41:00.014Z,50.10
2022-12-18T11:43:34.893Z,50.75
2022-12-18T11:46:19.294Z,56.00
2022-12-18T11:48:53.263Z,55.05
2022-12-18T11:51:28.729Z,54.78
2022-12-18T11:53:55.408Z,53.50
2022-12-18T11:56:36.072Z,54.38
2022-12-18T11:59:14.883Z,54.15
2022-12-18T12:01:55.625Z,50.95
2022-12-18T12:04:34.257Z,54.50
2022-12-18T12:07:17.440Z,58.93
2022-12-18T12:09:54.318Z,50.65
2022-12-18T12:12:23.528Z,53.28
2022-12-18T12:15:12.950Z,52.30
2022-12-18T12:17:55.477Z,53.25
2022-12-18T12:21:16.286Z,55.37
2022-12-18T12:24:12.523Z,56.33
2022-12-18T12:27:16.466Z,56.25
2022-12-18T12:29:49.752Z,59.00
2022-12-18T12:32:16.516Z,54.42
2022-12-18T12:35:00.203Z,52.97
2022-12-18T12:38:10.655Z,47.08
2022-12-18T12:40:56.662Z,57.60
2022-12-18T12:43:47.679Z,53.50
2022-12-18T12:49:18.395Z,51.07
2022-12-18T12:51:50.618Z,52.85
2022-12-18T12:54:22.545Z,51.47
2022-12-18T12:57:13.182Z,56.17
2022-12-18T12:59:59.461Z,67.47
2022-12-18T13:02:36.996Z,64.47
2022-12-18T13:05:22.924Z,62.95
2022-12-18T13:07:58.540Z,65.00
2022-12-18T13:10:27.937Z,64.97
2022-12-18T13:12:58.248Z,54.28
2022-12-18T13:13:43.500Z,52.00
2022-12-18T13:15:39.802Z,57.63
2022-12-18T13:18:25.052Z,57.85
2022-12-18T13:23:49.813Z,51.58
2022-12-18T13:26:26.333Z,50.80
2022-12-18T13:28:57.184Z,56.17
2022-12-18T13:31:42.348Z,57.63
2022-12-18T13:34:26.983Z,54.42
2022-12-18T13:36:57.052Z,55.10
2022-12-18T13:39:34.814Z,54.40
2022-12-18T13:42:08.572Z,52.00
2022-12-18T13:44:41.633Z,50.60
2022-12-18T13:47:34.466Z,57.90
2022-12-18T13:50:10.073Z,56.53
2022-12-18T13:52:40.286Z,54.30
2022-12-18T13:55:16.619Z,55.37
2022-12-18T13:57:43.358Z,52.92
2022-12-18T14:00:23.047Z,58.17
2022-12-18T14:02:51.416Z,54.97
2022-12-18T14:05:26.649Z,54.38
2022-12-18T14:07:54.780Z,55.37
2022-12-18T14:13:12.533Z,52.38
2022-12-18T14:15:45.301Z,58.13
2022-12-18T14:18:27.610Z,56.38
2022-12-18T14:21:00.403Z,57.23
2022-12-18T14:23:39.734Z,59.20
2022-12-18T14:26:28.946Z,57.83
2022-12-18T14:28:56.934Z,56.10
2022-12-18T14:31:26.369Z,64.68
2022-12-18T14:33:54.336Z,77.57
2022-12-18T14:36:30.382Z,57.50
2022-12-18T14:38:59.343Z,58.05
2022-12-18T14:41:27.025Z,61.67
2022-12-18T14:43:55.092Z,52.53
2022-12-18T14:46:33.928Z,53.07
2022-12-18T14:49:30.703Z,54.85
2022-12-18T14:51:59.931Z,49.30
2022-12-18T14:54:28.423Z,54.35
2022-12-18T14:57:04.875Z,55.75
2022-12-18T14:59:33.021Z,60.83
2022-12-18T15:02:12.177Z,62.03
2022-12-18T15:04:44.671Z,60.58
2022-12-18T15:07:19.251Z,54.15
2022-12-18T15:10:11.969Z,57.00
2022-12-18T15:12:41.995Z,60.13
2022-12-18T15:15:33.706Z,56.38
2022-12-18T15:18:12.725Z,57.00
2022-12-18T15:20:44.438Z,55.72
2022-12-18T15:23:39.314Z,56.42
2022-12-18T15:26:10.066Z,48.93
2022-12-18T15:28:59.535Z,56.83
2022-12-18T15:31:36.326Z,51.97
2022-12-18T15:34:18.983Z,52.05
2022-12-18T15:36:45.742Z,54.25
2022-12-18T15:39:14.075Z,60.73
2022-12-18T15:41:41.206Z,45.90
2022-12-18T15:44:24.025Z,56.92
2022-12-18T15:46:50.748Z,59.13
2022-12-18T15:49:17.496Z,58.25
2022-12-18T15:51:44.493Z,61.20
2022-12-18T15:54:17.069Z,61.10
2022-12-18T15:57:02.348Z,59.85
2022-12-18T15:59:29.471Z,58.72
2022-12-18T16:01:57.602Z,61.83
2022-12-18T16:04:25.715Z,60.20
2022-12-18T16:07:14.477Z,59.15
2022-12-18T16:09:42.846Z,67.20
2022-12-18T16:12:19.109Z,93.57
2022-12-18T16:14:46.176Z,74.65
2022-12-18T16:17:14.657Z,70.97
2022-12-18T16:19:41.593Z,72.50
2022-12-18T16:22:20.986Z,70.50
2022-12-18T16:24:48.070Z,69.75
2022-12-18T16:27:14.831Z,98.97
2022-12-18T16:29:41.510Z,113.73
2022-12-18T16:32:12.446Z,82.30
2022-12-18T16:34:39.075Z,69.72
2022-12-18T16:37:08.291Z,70.22
2022-12-18T16:39:36.097Z,76.70
2022-12-18T16:42:15.343Z,73.13
2022-12-18T16:44:42.115Z,70.35
2022-12-18T16:47:09.283Z,68.85
2022-12-18T16:49:38.036Z,68.07
2022-12-18T16:52:08.207Z,75.90
2022-12-18T16:54:36.677Z,51.20
2022-12-18T16:57:05.469Z,66.80
2022-12-18T16:59:32.272Z,69.82
2022-12-18T17:01:59.145Z,75.32
2022-12-18T17:04:25.909Z,64.53
2022-12-18T17:06:53.817Z,69.97
2022-12-18T17:09:30.582Z,65.43
2022-12-18T17:11:57.169Z,73.22
2022-12-18T17:14:24.955Z,69.03
2022-12-18T17:17:19.095Z,72.22
2022-12-18T17:19:39.465Z,73.17
2022-12-18T17:22:08.001Z,67.47
2022-12-18T17:24:35.500Z,68.40
2022-12-18T17:27:03.497Z,68.18
2022-12-18T17:29:30.285Z,65.53
2022-12-18T17:31:57.279Z,55.97
2022-12-18T17:34:25.453Z,66.15
2022-12-18T17:36:52.209Z,73.15
2022-12-18T17:39:20.413Z,58.90
2022-12-18T17:41:48.314Z,66.47
2022-12-18T17:44:16.578Z,71.03
2022-12-18T17:46:43.777Z,74.25
2022-12-18T17:49:11.112Z,75.90
2022-12-18T17:51:37.980Z,69.85
2022-12-18T17:54:05.438Z,83.35
2022-12-18T17:56:32.963Z,73.87
2022-12-18T17:58:59.912Z,75.25
2022-12-18T18:01:27.219Z,72.55
2022-12-18T18:03:56.333Z,83.55
2022-12-18T18:06:23.916Z,75.80
2022-12-18T18:08:51.124Z,77.80
2022-12-18T18:11:38.227Z,75.47
2022-12-18T18:14:08.490Z,73.13
2022-12-18T18:16:41.502Z,76.93
2022-12-18T18:19:14.922Z,70.28
2022-12-18T18:21:43.865Z,67.23
2022-12-18T18:24:12.878Z,75.55
2022-12-18T18:26:41.500Z,65.82
2022-12-18T18:29:09.161Z,65.80
2022-12-18T18:31:40.692Z,58.25
2022-12-18T18:34:08.651Z,74.90
2022-12-18T18:36:35.473Z,77.63
2022-12-18T18:39:02.290Z,74.78
2022-12-18T18:41:30.594Z,69.43
2022-12-18T18:43:58.479Z,68.40
2022-12-18T18:46:26.039Z,75.90
2022-12-18T18:48:53.368Z,80.43
2022-12-18T18:51:21.431Z,68.78
2022-12-18T18:53:50.459Z,73.18
2022-12-18T18:57:04.131Z,71.85
2022-12-18T18:59:09.584Z,68.70
2022-12-18T19:01:36.354Z,76.05
2022-12-18T19:04:03.642Z,70.22
2022-12-18T19:06:30.458Z,72.45
2022-12-18T19:08:58.649Z,78.53
2022-12-18T19:11:44.546Z,70.30
2022-12-18T19:14:13.999Z,70.40
2022-12-18T19:16:41.727Z,75.22
2022-12-18T19:19:08.856Z,68.80
2022-12-18T19:21:35.916Z,75.65
2022-12-18T19:24:02.907Z,85.10
2022-12-18T19:26:29.817Z,71.75
2022-12-18T19:29:04.378Z,74.93
2022-12-18T19:31:35.467Z,69.78
2022-12-18T19:34:04.932Z,79.63
2022-12-18T19:36:32.488Z,68.87
2022-12-18T19:39:01.383Z,71.65
2022-12-18T19:41:32.878Z,74.00
2022-12-18T19:44:00.056Z,73.00
2022-12-18T19:46:28.938Z,72.57
2022-12-18T19:48:55.632Z,81.57
2022-12-18T19:51:27.817Z,74.85
2022-12-18T19:53:58.887Z,79.25
2022-12-18T19:56:30.386Z,69.63
2022-12-18T19:58:57.793Z,78.28
2022-12-18T20:01:25.827Z,77.90
2022-12-18T20:03:54.534Z,83.60
2022-12-18T20:06:27.192Z,64.95
2022-12-18T20:08:57.626Z,74.20
2022-12-18T20:11:28.867Z,69.78
2022-12-18T20:13:55.733Z,70.17
2022-12-18T20:16:22.617Z,81.65
2022-12-18T20:18:49.515Z,77.68
2022-12-18T20:21:16.273Z,72.43
2022-12-18T20:23:43.627Z,88.07
2022-12-18T20:26:11.195Z,72.30
2022-12-18T20:28:40.440Z,69.97
2022-12-18T20:31:10.538Z,84.20
2022-12-18T20:33:41.436Z,80.72
2022-12-18T20:36:13.276Z,86.30
2022-12-18T20:38:41.247Z,84.47
2022-12-18T20:41:10.892Z,85.90
2022-12-18T20:43:38.959Z,78.07
2022-12-18T20:46:08.861Z,74.97
2022-12-18T20:48:36.217Z,79.75
2022-12-18T20:51:06.034Z,90.40
2022-12-18T20:53:33.936Z,84.55
2022-12-18T20:56:02.195Z,75.25
2022-12-18T20:58:28.994Z,77.28
2022-12-18T21:01:10.818Z,75.05
2022-12-18T21:03:40.072Z,69.70
2022-12-18T21:06:07.842Z,72.45
2022-12-18T21:08:34.857Z,76.05
2022-12-18T21:11:36.040Z,68.47
2022-12-18T21:14:04.569Z,64.80
2022-12-18T21:16:31.837Z,68.13
2022-12-18T21:18:58.806Z,65.70
2022-12-18T21:21:26.708Z,72.20
2022-12-18T21:23:54.124Z,70.38
2022-12-18T21:26:23.298Z,69.10
2022-12-18T21:28:58.061Z,73.23
2022-12-18T21:31:28.076Z,75.93
2022-12-18T21:34:01.287Z,75.63
2022-12-18T21:36:30.158Z,79.20
2022-12-18T21:38:57.045Z,66.35
2022-12-18T21:41:43.891Z,70.50
2022-12-18T21:44:13.336Z,76.68
2022-12-18T21:46:48.859Z,62.83
2022-12-18T21:49:22.423Z,76.63
2022-12-18T21:51:51.319Z,75.35
2022-12-18T21:54:19.317Z,72.97
2022-12-18T21:56:53.401Z,67.63
2022-12-18T21:59:28.709Z,70.55
2022-12-18T22:01:57.906Z,66.30
2022-12-18T22:04:25.329Z,66.47
2022-12-18T22:06:52.616Z,63.93
2022-12-18T22:09:21.578Z,72.38
2022-12-18T22:11:49.222Z,67.68
2022-12-18T22:14:16.700Z,66.53
2022-12-18T22:16:43.551Z,64.57
2022-12-18T22:19:11.715Z,70.43
2022-12-18T22:21:41.046Z,74.13
2022-12-18T22:24:12.451Z,62.80
2022-12-18T22:26:40.326Z,61.45
2022-12-18T22:29:26.721Z,66.40
2022-12-18T22:31:53.330Z,67.83
2022-12-18T22:34:22.970Z,63.15
2022-12-18T22:36:50.791Z,70.40
2022-12-18T22:39:23.230Z,59.20
2022-12-18T22:41:51.233Z,59.40
2022-12-18T22:44:18.302Z,55.97
2022-12-18T22:46:50.078Z,55.45
2022-12-18T22:49:32.505Z,59.55
2022-12-18T22:52:01.611Z,59.10
2022-12-18T22:54:28.220Z,61.58
2022-12-18T22:56:55.575Z,60.80
2022-12-18T22:59:23.312Z,52.90
2022-12-18T23:01:54.541Z,59.40
2022-12-18T23:04:36.219Z,58.83
2022-12-18T23:07:05.209Z,58.00
2022-12-18T23:09:32.744Z,57.53
2022-12-18T23:11:59.956Z,55.38
2022-12-18T23:14:27.837Z,55.10
2022-12-18T23:16:54.783Z,51.97
2022-12-18T23:19:23.448Z,50.78
2022-12-18T23:21:51.451Z,57.60
2022-12-18T23:24:18.426Z,53.35
2022-12-18T23:26:45.020Z,55.58
2022-12-18T23:29:11.693Z,57.92
2022-12-18T23:31:39.475Z,55.47
2022-12-18T23:34:07.154Z,55.37
2022-12-18T23:36:46.548Z,51.08
2022-12-18T23:39:27.024Z,60.05
2022-12-18T23:41:56.631Z,51.50
2022-12-18T23:44:23.431Z,52.08
2022-12-18T23:46:50.267Z,53.50
2022-12-18T23:49:17.040Z,51.28
2022-12-18T23:51:43.721Z,52.92
2022-12-18T23:54:10.615Z,49.28
2022-12-18T23:56:37.642Z,56.08
2022-12-18T23:59:04.660Z,47.70
